Flight Track Log - Related Links

Times and Time Zones

All times are in EDT time to prevent confusion due to time zone crossing. See the UAL1115 flight status page for this flight to view local times or setup timezone preferences in your user account.

Time Position Orientation Groundspeed Altitude Reporting Facility
EDT Latitude Longitude Course Direction KTS MPH feet Rate Location/Type
Wed 11:18:54 AM 28.0000 -82.5333 North 166 191 700  Level Tampa TRACON
Wed 11:19:42 AM 28.0333 -82.5333 360° North 175 201 2,300 2,353 Climbing Tampa TRACON
Wed 11:20:36 AM 28.0833 -82.5333 360° North 231 266 4,700 2,842 Climbing Tampa TRACON
Wed 11:21:36 AM 28.1333 -82.6000 310° West 260 299 7,700 2,627 Climbing Tampa TRACON
Wed 11:22:00 AM 28.4346 -82.5718 355° North  Level FlightAware Approximate
Wed 11:23:00 AM 28.5534 -82.5833 North  Level FlightAware Approximate
Wed 11:23:25 AM 28.2678 -82.5892 North 290 334 12,100  Level Miami Center
Wed 11:24:00 AM 28.6727 -82.5833 North  Level FlightAware Approximate
Wed 11:24:03 AM 28.3269 -82.5883 North 278 320 14,000  Level Jacksonville Center
Wed 11:25:03 AM 28.4125 -82.6189 343° North 306 352 16,200 2,200 Climbing Jacksonville Center
Wed 11:26:03 AM 28.5025 -82.6517 342° North 323 372 18,400 2,100 Climbing Jacksonville Center
Wed 11:27:03 AM 28.6025 -82.6775 347° North 338 389 20,400 1,833 Climbing Jacksonville Center
Wed 11:29:39 AM 28.8769 -82.7431 351° North 401 461 25,000 1,476 Climbing Miami Center
Wed 11:35:23 AM 29.6349 -82.6867 North 489 563 32,700 1,275 Climbing FlightAware ADS-B
Wed 11:36:19 AM 29.7489 -82.6860 359° North 475 547 33,500 1,149 Climbing FlightAware ADS-B
Wed 11:36:57 AM 29.8391 -82.6867 360° North 471 542 34,500 1,660 Climbing FlightAware ADS-B
Wed 11:37:06 AM 29.8567 -82.6866 North 467 537 34,800 1,176 Climbing FlightAware ADS-B
Wed 11:38:39 AM 30.0513 -82.6856 360° North 452 520 36,500 955 Climbing FlightAware ADS-B
Wed 11:39:18 AM 30.1394 -82.6859 360° North 455 524 36,900 508 Climbing FlightAware ADS-B
Wed 11:39:38 AM 30.1809 -82.6859 North 454 522 37,000 74 Climbing FlightAware ADS-B
Wed 11:40:39 AM 30.3082 -82.6861 360° North 446 513 37,000  Level FlightAware ADS-B
Wed 11:41:09 AM 30.3640 -82.6863 North 444 511 37,000  Level FlightAware ADS-B
Wed 11:41:17 AM 30.3875 -82.6863 360° North 444 511 37,000 -111 Level FlightAware ADS-B
Wed 11:42:03 AM 30.4606 -82.6853 21° North 444 511 36,900 -57 Descending Jacksonville Center
Wed 11:43:03 AM 30.5983 -82.6464 14° North 444 511 36,900 91 Level Jacksonville Center
Wed 11:43:09 AM 30.6206 -82.6312 23° Northeast 493 567 37,000  Climbing FlightAware ADS-B
Wed 11:44:03 AM 30.7256 -82.5833 23° Northeast 461 531 36,900  Descending Jacksonville Center
Wed 11:45:03 AM 30.8528 -82.5200 23° Northeast 478 550 37,000  Climbing Jacksonville Center
Wed 11:46:03 AM 30.9797 -82.4564 23° Northeast 483 556 36,900  Descending Jacksonville Center
Wed 11:47:00 AM 31.0070 -82.4244 21° North  Level FlightAware Approximate
Wed 11:47:03 AM 31.1111 -82.3928 23° Northeast 493 567 37,000  Level Jacksonville Center
Wed 11:48:03 AM 31.2403 -82.3314 22° Northeast 493 567 36,900  Descending Jacksonville Center
Wed 11:49:03 AM 31.3694 -82.2697 22° Northeast 498 573 37,000  Climbing Jacksonville Center
Wed 11:50:03 AM 31.5008 -82.2031 23° Northeast 498 573 36,900  Descending Jacksonville Center
Wed 11:51:03 AM 31.6297 -82.1411 22° Northeast 496 571 37,000 33 Climbing Jacksonville Center
Wed 11:53:03 AM 31.8775 -82.0167 23° Northeast 498 573 37,000  Level Jacksonville Center
Wed 11:54:03 AM 32.0211 -81.9467 22° Northeast 498 573 37,000  Level Jacksonville Center
Wed 11:55:03 AM 32.1481 -81.8867 22° Northeast 498 573 37,000  Level Jacksonville Center
Wed 11:57:03 AM 32.3994 -81.7681 22° Northeast 483 556 37,000  Level Jacksonville Center
Wed 12:02:03 PM 33.0289 -81.4631 22° Northeast 490 564 37,000  Level Jacksonville Center
Wed 12:03:03 PM 33.1597 -81.3989 22° Northeast 490 564 37,000  Level Jacksonville Center
Wed 12:06:00 PM 33.4198 -81.2594 22° Northeast  Level FlightAware Approximate
Wed 12:07:00 PM 33.5343 -81.2038 22° Northeast  Level FlightAware Approximate
Wed 12:09:02 PM 33.8833 -80.8354 38° Northeast 517 595 37,000  Level FlightAware ADS-B
Wed 12:09:42 PM 33.9584 -80.7645 38° Northeast 516 594 37,000  Level FlightAware ADS-B
Wed 12:10:29 PM 34.0477 -80.6801 38° Northeast 514 592 37,000  Level FlightAware ADS-B
Wed 12:11:13 PM 34.1284 -80.6030 38° Northeast 513 590 37,000  Level FlightAware ADS-B
Wed 12:12:14 PM 34.2424 -80.4942 38° Northeast 512 589 37,000  Level FlightAware ADS-B
Wed 12:13:43 PM 34.3833 -80.3606 38° Northeast 495 570 37,000  Level Washington Center
Wed 12:14:44 PM 34.4919 -80.2508 40° Northeast 500 575 37,000  Level Washington Center
Wed 12:16:43 PM 34.7281 -80.0244 40° Northeast 508 585 37,000  Level Washington Center
Wed 12:20:43 PM 35.1875 -79.6658 32° Northeast 497 572 37,000  Level Washington Center
Wed 12:21:44 PM 35.3050 -79.5778 31° Northeast 503 579 37,000  Level Washington Center
Wed 12:22:44 PM 35.4272 -79.4844 32° Northeast 503 579 37,000  Level Washington Center
Wed 12:24:42 PM 35.6686 -79.3019 37° Northeast 509 586 37,000  Level Washington Center
Wed 12:25:00 PM 35.5832 -79.3364 33° Northeast  Level FlightAware Approximate
Wed 12:25:43 PM 35.7906 -79.2103 31° Northeast 509 586 37,000  Level Washington Center
Wed 12:26:00 PM 35.6878 -79.2546 32° Northeast  Level FlightAware Approximate
Wed 12:26:44 PM 35.9103 -79.1156 33° Northeast 509 586 37,000  Level Washington Center
Wed 12:29:43 PM 36.2772 -78.8306 34° Northeast 509 586 37,000  Level Washington Center
Wed 12:30:41 PM 36.3922 -78.7400 32° Northeast 504 580 37,000  Level Washington Center
Wed 12:31:43 PM 36.5114 -78.6492 31° Northeast 504 580 37,000  Level Washington Center
Wed 12:33:44 PM 36.7456 -78.4614 37° Northeast 504 580 37,000  Level Washington Center
Wed 12:34:42 PM 36.8625 -78.3669 33° Northeast 504 580 37,000  Level Washington Center
Wed 12:36:43 PM 37.0983 -78.1750 32° Northeast 503 579 37,000  Level Washington Center
Wed 12:37:45 PM 37.2150 -78.0825 32° Northeast 503 579 37,000  Level Washington Center
Wed 12:39:00 PM 37.3391 -77.9650 33° Northeast  Level FlightAware Approximate
Wed 12:39:43 PM 37.4506 -77.8914 33° Northeast 503 579 37,000  Level Washington Center
Wed 12:46:08 PM 38.1947 -77.2142 39° Northeast 511 588 37,000  Level FlightAware ADS-B (KDAA)
Wed 12:46:41 PM 38.2536 -77.1534 39° Northeast 512 589 37,000  Level FlightAware ADS-B (KDAA)
Wed 12:47:12 PM 38.3109 -77.0942 39° Northeast 512 589 37,000  Level FlightAware ADS-B (KDAA)
Wed 12:47:42 PM 38.3687 -77.0346 38° Northeast 513 590 37,000  Level FlightAware ADS-B (KDAA)
Wed 12:48:12 PM 38.4156 -76.9865 39° Northeast 512 589 37,000  Level FlightAware ADS-B (KDAA)
Wed 12:48:42 PM 38.4780 -76.9219 39° Northeast 513 590 37,000  Level FlightAware ADS-B (KDAA)
Wed 12:48:43 PM 38.4800 -76.9198 39° Northeast 513 590 37,000  Level FlightAware ADS-B
Wed 12:49:12 PM 38.5338 -76.8641 39° Northeast 513 590 37,000  Level FlightAware ADS-B (KDAA)
Wed 12:49:43 PM 38.5889 -76.8069 39° Northeast 513 590 37,000  Level FlightAware ADS-B (KDAA)
Wed 12:50:12 PM 38.6442 -76.7494 39° Northeast 514 592 37,000  Level FlightAware ADS-B (KDAA)
Wed 12:50:42 PM 38.6996 -76.6918 39° Northeast 515 593 37,000  Level FlightAware ADS-B (KDAA)
Wed 12:51:13 PM 38.7562 -76.6329 39° Northeast 516 594 37,000  Level FlightAware ADS-B (KDAA)
Wed 12:51:42 PM 38.8095 -76.5773 39° Northeast 516 594 37,000  Level FlightAware ADS-B (KDAA)
Wed 12:51:58 PM 38.8390 -76.5463 39° Northeast 517 595 37,000 -214 Level FlightAware ADS-B
Wed 12:52:10 PM 38.8590 -76.5253 39° Northeast 516 594 36,900 -1,538 Descending FlightAware ADS-B (KDAA)
Wed 12:52:37 PM 38.9114 -76.4701 40° Northeast 514 592 36,000 -1,355 Descending FlightAware ADS-B
Wed 12:52:41 PM 38.9039 -76.4780 39° Northeast 514 592 36,200 -3,097 Climbing FlightAware ADS-B (KDAA)
Wed 12:53:08 PM 38.9697 -76.4087 39° Northeast 519 597 34,400 -3,730 Descending FlightAware ADS-B (KDAA)
Wed 12:53:18 PM 38.9718 -76.4066 40° Northeast 519 597 33,900 -3,240 Descending FlightAware ADS-B
Wed 12:53:58 PM 39.0473 -76.3264 40° Northeast 518 596 31,700 -3,094 Descending FlightAware ADS-B
Wed 12:54:22 PM 39.1058 -76.2642 39° Northeast 519 597 30,600 -2,667 Descending FlightAware ADS-B (KDAA)
Wed 12:54:34 PM 39.1258 -76.2430 40° Northeast 497 572 30,100 -2,471 Descending FlightAware ADS-B (LFML / MRS)
Wed 12:55:13 PM 39.1713 -76.1945 40° Northeast 483 556 28,500 -2,067 Descending FlightAware ADS-B (LFML / MRS)
Wed 12:56:04 PM 39.2686 -76.0914 42° Northeast 446 513 27,000 -818 Descending FlightAware ADS-B (LFML / MRS)
Wed 12:57:03 PM 39.3581 -75.9867 43° Northeast 441 507 27,000  Level FlightAware ADS-B
Wed 12:57:40 PM 39.4174 -75.9168 43° Northeast 441 507 27,000 -171 Level FlightAware ADS-B (LFML / MRS)
Wed 12:58:13 PM 39.4581 -75.8685 43° Northeast 440 506 26,800 -1,292 Descending FlightAware ADS-B (LFML / MRS)
Wed 12:58:45 PM 39.5057 -75.8123 43° Northeast 437 503 25,600 -1,970 Descending FlightAware ADS-B (KPHL)
Wed 12:59:20 PM 39.5379 -75.7741 43° Northeast 433 498 24,600 -1,909 Descending FlightAware ADS-B
Wed 12:59:51 PM 39.6167 -75.6804 43° Northeast 427 491 23,500 -2,160 Descending FlightAware ADS-B
Wed 01:00:35 PM 39.6779 -75.6071 43° Northeast 421 484 21,900 -2,118 Descending FlightAware ADS-B
Wed 01:01:16 PM 39.7373 -75.5361 43° Northeast 412 474 20,500 -2,108 Descending FlightAware ADS-B
Wed 01:01:49 PM 39.7771 -75.4879 43° Northeast 399 459 19,300 -1,963 Descending FlightAware ADS-B
Wed 01:03:03 PM 39.8584 -75.3894 43° Northeast 362 417 17,000 -1,811 Descending FlightAware ADS-B
Wed 01:03:35 PM 39.9109 -75.3263 43° Northeast 356 410 16,100 -1,829 Descending FlightAware ADS-B
Wed 01:04:25 PM 39.9700 -75.2543 43° Northeast 346 398 14,500 -1,771 Descending FlightAware ADS-B
Wed 01:05:20 PM 40.0317 -75.1791 43° Northeast 340 391 13,000 -1,663 Descending FlightAware ADS-B
Wed 01:06:06 PM 40.0877 -75.1110 43° Northeast 333 383 11,700 -1,403 Descending FlightAware ADS-B (KPHL)
Wed 01:06:37 PM 40.0985 -75.0979 44° Northeast 320 368 11,200 -789 Descending FlightAware ADS-B (KPHL)
Wed 01:07:22 PM 40.1388 -75.0483 43° Northeast 302 348 10,700 -800 Descending FlightAware ADS-B (KPHL)
Wed 01:07:52 PM 40.1923 -74.9826 43° Northeast 290 334 10,200 -1,333 Descending FlightAware ADS-B (KPHL)
Wed 01:08:16 PM 40.2262 -74.9409 43° Northeast 285 328 9,500 -1,440 Descending FlightAware ADS-B (KPHL)
Wed 01:08:42 PM 40.2493 -74.9126 43° Northeast 282 325 9,000 -903 Descending FlightAware ADS-B (KPHL)
Wed 01:10:09 PM 40.3167 -74.8000 43° Northeast 246 283 7,800 -816 Descending New York TRACON
Wed 01:11:09 PM 40.3667 -74.7500 37° Northeast 230 265 7,000 -900 Descending New York TRACON
Wed 01:12:09 PM 40.4167 -74.6833 45° Northeast 234 269 6,000 -667 Descending New York TRACON
Wed 01:14:09 PM 40.4167 -74.5500 90° East 243 280 5,000 -448 Descending New York TRACON
Wed 01:15:03 PM 40.3667 -74.5000 143° Southeast 215 247 4,700 -684 Descending New York TRACON
Wed 01:16:03 PM 40.3333 -74.4500 131° Southeast 202 232 3,700 -333 Descending New York TRACON
Wed 01:21:03 PM 40.5333 -74.2667 118° Southeast 182 209 2,700 -183 Descending New York TRACON
Wed 01:22:03 PM 40.5667 -74.2333 37° Northeast 176 203 2,600 50 Descending New York TRACON
Wed 01:23:03 PM 40.6167 -74.2000 27° Northeast 186 214 2,800 -436 Climbing New York TRACON
Wed 01:25:00 PM 40.6925 -74.1687 31° Northeast  Level Estimated
Wed 01:25:57 PM 40.7000 -74.0833 47° Northeast 145 167 900  Level New York TRACON
Wed 01:26:00 PM 40.6925 -74.1687 118° Southeast  Level Estimated
Wed 01:26:57 PM 40.7000 -74.1333 270° West 159 183 400  Level New York TRACON

Login

Don't have an account? Register now (free) for customized features, flight alerts, and more!